sensor_id;sensor_type;location;lat;lon;timestamp;temperature;humidity
47174;DHT22;36730;49.036;9.094;2023-10-31T00:00:05;24.60;73.20
47174;DHT22;36730;49.036;9.094;2023-10-31T00:02:31;24.70;73.20
47174;DHT22;36730;49.036;9.094;2023-10-31T00:04:57;24.70;73.20
47174;DHT22;36730;49.036;9.094;2023-10-31T00:07:22;24.70;73.20
47174;DHT22;36730;49.036;9.094;2023-10-31T00:09:48;24.70;73.20
47174;DHT22;36730;49.036;9.094;2023-10-31T00:12:13;24.60;73.30
47174;DHT22;36730;49.036;9.094;2023-10-31T00:14:39;24.60;73.00
47174;DHT22;36730;49.036;9.094;2023-10-31T00:17:04;24.70;73.00
47174;DHT22;36730;49.036;9.094;2023-10-31T00:19:30;24.70;72.90
47174;DHT22;36730;49.036;9.094;2023-10-31T00:21:55;24.70;72.80
47174;DHT22;36730;49.036;9.094;2023-10-31T00:24:21;24.70;72.80
47174;DHT22;36730;49.036;9.094;2023-10-31T00:26:46;24.70;72.60
47174;DHT22;36730;49.036;9.094;2023-10-31T00:29:12;24.60;72.50
47174;DHT22;36730;49.036;9.094;2023-10-31T00:31:37;24.70;72.40
47174;DHT22;36730;49.036;9.094;2023-10-31T00:34:06;24.70;72.90
47174;DHT22;36730;49.036;9.094;2023-10-31T00:36:32;24.60;72.20
47174;DHT22;36730;49.036;9.094;2023-10-31T00:38:57;24.60;72.10
47174;DHT22;36730;49.036;9.094;2023-10-31T00:41:23;24.60;72.00
47174;DHT22;36730;49.036;9.094;2023-10-31T00:43:48;24.60;72.40
47174;DHT22;36730;49.036;9.094;2023-10-31T00:46:14;24.60;72.00
47174;DHT22;36730;49.036;9.094;2023-10-31T00:48:39;24.60;72.00
47174;DHT22;36730;49.036;9.094;2023-10-31T00:51:05;24.60;71.90
47174;DHT22;36730;49.036;9.094;2023-10-31T00:53:31;24.60;71.80
47174;DHT22;36730;49.036;9.094;2023-10-31T00:55:56;24.60;71.60
47174;DHT22;36730;49.036;9.094;2023-10-31T00:58:22;24.60;71.60
47174;DHT22;36730;49.036;9.094;2023-10-31T01:00:48;24.60;71.50
47174;DHT22;36730;49.036;9.094;2023-10-31T01:03:13;24.60;71.30
47174;DHT22;36730;49.036;9.094;2023-10-31T01:05:39;24.70;71.30
47174;DHT22;36730;49.036;9.094;2023-10-31T01:08:04;24.60;71.00
47174;DHT22;36730;49.036;9.094;2023-10-31T01:10:30;24.60;70.90
47174;DHT22;36730;49.036;9.094;2023-10-31T01:12:56;24.60;70.80
47174;DHT22;36730;49.036;9.094;2023-10-31T01:15:21;24.60;70.80
47174;DHT22;36730;49.036;9.094;2023-10-31T01:17:47;24.60;70.50
47174;DHT22;36730;49.036;9.094;2023-10-31T01:20:12;24.60;70.40
47174;DHT22;36730;49.036;9.094;2023-10-31T01:22:38;24.60;70.50
47174;DHT22;36730;49.036;9.094;2023-10-31T01:25:04;24.60;70.60
47174;DHT22;36730;49.036;9.094;2023-10-31T01:27:29;24.60;70.30
47174;DHT22;36730;49.036;9.094;2023-10-31T01:29:55;24.60;70.20
47174;DHT22;36730;49.036;9.094;2023-10-31T01:32:20;24.60;70.10
47174;DHT22;36730;49.036;9.094;2023-10-31T01:34:46;24.60;70.20
47174;DHT22;36730;49.036;9.094;2023-10-31T01:37:11;24.50;69.90
47174;DHT22;36730;49.036;9.094;2023-10-31T01:39:38;24.50;69.80
47174;DHT22;36730;49.036;9.094;2023-10-31T01:42:03;24.60;69.80
47174;DHT22;36730;49.036;9.094;2023-10-31T01:44:29;24.60;69.70
47174;DHT22;36730;49.036;9.094;2023-10-31T01:46:55;24.50;69.50
47174;DHT22;36730;49.036;9.094;2023-10-31T01:49:20;24.60;69.40
47174;DHT22;36730;49.036;9.094;2023-10-31T01:51:46;24.50;69.40
47174;DHT22;36730;49.036;9.094;2023-10-31T01:54:12;24.60;69.30
47174;DHT22;36730;49.036;9.094;2023-10-31T01:56:38;24.50;69.20
47174;DHT22;36730;49.036;9.094;2023-10-31T01:59:05;24.50;69.20
47174;DHT22;36730;49.036;9.094;2023-10-31T02:01:31;24.50;69.00
47174;DHT22;36730;49.036;9.094;2023-10-31T02:03:56;24.50;69.00
47174;DHT22;36730;49.036;9.094;2023-10-31T02:06:24;24.50;68.70
47174;DHT22;36730;49.036;9.094;2023-10-31T02:08:49;24.50;68.60
47174;DHT22;36730;49.036;9.094;2023-10-31T02:11:15;24.50;68.50
47174;DHT22;36730;49.036;9.094;2023-10-31T02:13:40;24.50;68.60
47174;DHT22;36730;49.036;9.094;2023-10-31T02:16:06;24.50;68.50
47174;DHT22;36730;49.036;9.094;2023-10-31T02:18:31;24.50;68.60
47174;DHT22;36730;49.036;9.094;2023-10-31T02:20:57;24.50;68.50
47174;DHT22;36730;49.036;9.094;2023-10-31T02:23:23;24.50;68.30
47174;DHT22;36730;49.036;9.094;2023-10-31T02:25:48;24.50;68.20
47174;DHT22;36730;49.036;9.094;2023-10-31T02:28:14;24.50;68.10
47174;DHT22;36730;49.036;9.094;2023-10-31T02:30:40;24.40;68.00
47174;DHT22;36730;49.036;9.094;2023-10-31T02:33:05;24.50;68.80
47174;DHT22;36730;49.036;9.094;2023-10-31T02:35:31;24.40;68.00
47174;DHT22;36730;49.036;9.094;2023-10-31T02:37:56;24.50;67.90
47174;DHT22;36730;49.036;9.094;2023-10-31T02:40:22;24.50;67.90
47174;DHT22;36730;49.036;9.094;2023-10-31T02:42:47;24.50;67.80
47174;DHT22;36730;49.036;9.094;2023-10-31T02:45:13;24.50;67.80
47174;DHT22;36730;49.036;9.094;2023-10-31T02:47:38;24.50;67.50
47174;DHT22;36730;49.036;9.094;2023-10-31T02:50:04;24.50;67.40
47174;DHT22;36730;49.036;9.094;2023-10-31T02:52:30;24.40;67.40
47174;DHT22;36730;49.036;9.094;2023-10-31T02:54:56;24.50;68.00
47174;DHT22;36730;49.036;9.094;2023-10-31T02:57:21;24.40;67.20
47174;DHT22;36730;49.036;9.094;2023-10-31T02:59:47;24.50;67.20
47174;DHT22;36730;49.036;9.094;2023-10-31T03:02:12;24.40;67.10
47174;DHT22;36730;49.036;9.094;2023-10-31T03:04:38;24.40;67.20
47174;DHT22;36730;49.036;9.094;2023-10-31T03:07:03;24.40;67.00
47174;DHT22;36730;49.036;9.094;2023-10-31T03:09:29;24.40;67.00
47174;DHT22;36730;49.036;9.094;2023-10-31T03:11:55;24.40;66.90
47174;DHT22;36730;49.036;9.094;2023-10-31T03:14:20;24.40;66.90
47174;DHT22;36730;49.036;9.094;2023-10-31T03:16:45;24.40;66.90
47174;DHT22;36730;49.036;9.094;2023-10-31T03:19:11;24.40;66.70
47174;DHT22;36730;49.036;9.094;2023-10-31T03:21:36;24.40;66.80
47174;DHT22;36730;49.036;9.094;2023-10-31T03:24:02;24.40;67.00
47174;DHT22;36730;49.036;9.094;2023-10-31T03:26:27;24.40;66.60
47174;DHT22;36730;49.036;9.094;2023-10-31T03:28:53;24.40;66.50
47174;DHT22;36730;49.036;9.094;2023-10-31T03:31:22;24.40;66.50
47174;DHT22;36730;49.036;9.094;2023-10-31T03:33:48;24.40;66.30
47174;DHT22;36730;49.036;9.094;2023-10-31T03:36:13;24.40;66.20
47174;DHT22;36730;49.036;9.094;2023-10-31T03:38:38;24.40;66.20
47174;DHT22;36730;49.036;9.094;2023-10-31T03:41:04;24.40;66.10
47174;DHT22;36730;49.036;9.094;2023-10-31T03:43:30;24.40;66.10
47174;DHT22;36730;49.036;9.094;2023-10-31T03:45:55;24.40;66.00
47174;DHT22;36730;49.036;9.094;2023-10-31T03:48:21;24.40;66.00
47174;DHT22;36730;49.036;9.094;2023-10-31T03:50:46;24.40;66.00
47174;DHT22;36730;49.036;9.094;2023-10-31T03:53:12;24.40;66.10
47174;DHT22;36730;49.036;9.094;2023-10-31T03:55:37;24.40;65.90
47174;DHT22;36730;49.036;9.094;2023-10-31T03:58:03;24.40;65.90
47174;DHT22;36730;49.036;9.094;2023-10-31T04:00:28;24.40;65.90
47174;DHT22;36730;49.036;9.094;2023-10-31T04:02:54;24.40;66.30
47174;DHT22;36730;49.036;9.094;2023-10-31T04:05:19;24.40;65.80
47174;DHT22;36730;49.036;9.094;2023-10-31T04:07:46;24.40;65.60
47174;DHT22;36730;49.036;9.094;2023-10-31T04:10:11;24.40;65.50
47174;DHT22;36730;49.036;9.094;2023-10-31T04:12:37;24.40;65.50
47174;DHT22;36730;49.036;9.094;2023-10-31T04:15:02;24.40;65.30
47174;DHT22;36730;49.036;9.094;2023-10-31T04:17:28;24.40;65.40
47174;DHT22;36730;49.036;9.094;2023-10-31T04:19:53;24.40;65.30
47174;DHT22;36730;49.036;9.094;2023-10-31T04:22:19;24.40;65.10
47174;DHT22;36730;49.036;9.094;2023-10-31T04:24:44;24.50;65.10
47174;DHT22;36730;49.036;9.094;2023-10-31T04:27:10;24.50;65.00
47174;DHT22;36730;49.036;9.094;2023-10-31T04:29:35;24.50;64.80
47174;DHT22;36730;49.036;9.094;2023-10-31T04:32:01;24.50;64.80
47174;DHT22;36730;49.036;9.094;2023-10-31T04:34:26;24.50;64.80
47174;DHT22;36730;49.036;9.094;2023-10-31T04:36:51;24.60;64.70
47174;DHT22;36730;49.036;9.094;2023-10-31T04:39:17;24.60;64.50
47174;DHT22;36730;49.036;9.094;2023-10-31T04:41:42;24.60;64.30
47174;DHT22;36730;49.036;9.094;2023-10-31T04:44:08;24.60;64.20
47174;DHT22;36730;49.036;9.094;2023-10-31T04:46:33;24.50;63.20
47174;DHT22;36730;49.036;9.094;2023-10-31T04:48:59;24.40;62.50
47174;DHT22;36730;49.036;9.094;2023-10-31T04:51:24;24.30;63.00
47174;DHT22;36730;49.036;9.094;2023-10-31T04:53:50;24.30;62.70
47174;DHT22;36730;49.036;9.094;2023-10-31T04:56:15;24.20;62.50
47174;DHT22;36730;49.036;9.094;2023-10-31T04:58:44;24.10;60.70
47174;DHT22;36730;49.036;9.094;2023-10-31T05:01:13;23.90;62.50
47174;DHT22;36730;49.036;9.094;2023-10-31T05:03:38;23.90;62.40
47174;DHT22;36730;49.036;9.094;2023-10-31T05:06:04;23.80;62.10
47174;DHT22;36730;49.036;9.094;2023-10-31T05:08:30;23.80;62.00
47174;DHT22;36730;49.036;9.094;2023-10-31T05:10:56;23.70;61.50
47174;DHT22;36730;49.036;9.094;2023-10-31T05:13:21;23.70;61.70
47174;DHT22;36730;49.036;9.094;2023-10-31T05:15:47;23.60;62.70
47174;DHT22;36730;49.036;9.094;2023-10-31T05:18:12;23.60;61.70
47174;DHT22;36730;49.036;9.094;2023-10-31T05:20:38;23.60;61.70
47174;DHT22;36730;49.036;9.094;2023-10-31T05:23:03;23.70;61.70
47174;DHT22;36730;49.036;9.094;2023-10-31T05:25:29;23.70;62.00
47174;DHT22;36730;49.036;9.094;2023-10-31T05:27:54;23.70;61.70
47174;DHT22;36730;49.036;9.094;2023-10-31T05:30:20;23.70;61.40
47174;DHT22;36730;49.036;9.094;2023-10-31T05:32:46;23.80;60.60
47174;DHT22;36730;49.036;9.094;2023-10-31T05:35:11;23.80;60.90
47174;DHT22;36730;49.036;9.094;2023-10-31T05:37:37;23.80;60.90
47174;DHT22;36730;49.036;9.094;2023-10-31T05:40:02;23.80;60.70
47174;DHT22;36730;49.036;9.094;2023-10-31T05:42:28;23.80;60.60
47174;DHT22;36730;49.036;9.094;2023-10-31T05:44:54;23.80;60.30
47174;DHT22;36730;49.036;9.094;2023-10-31T05:47:19;23.80;60.30
47174;DHT22;36730;49.036;9.094;2023-10-31T05:49:45;23.80;60.20
47174;DHT22;36730;49.036;9.094;2023-10-31T05:52:11;23.80;60.70
47174;DHT22;36730;49.036;9.094;2023-10-31T05:54:36;23.80;60.60
47174;DHT22;36730;49.036;9.094;2023-10-31T05:57:02;23.80;60.30
47174;DHT22;36730;49.036;9.094;2023-10-31T05:59:27;23.80;60.60
47174;DHT22;36730;49.036;9.094;2023-10-31T06:01:53;23.80;60.30
47174;DHT22;36730;49.036;9.094;2023-10-31T06:04:18;23.80;60.10
47174;DHT22;36730;49.036;9.094;2023-10-31T06:06:44;23.80;60.40
47174;DHT22;36730;49.036;9.094;2023-10-31T06:09:09;23.80;60.30
47174;DHT22;36730;49.036;9.094;2023-10-31T06:11:35;23.80;60.90
47174;DHT22;36730;49.036;9.094;2023-10-31T06:14:01;23.80;60.60
47174;DHT22;36730;49.036;9.094;2023-10-31T06:16:27;23.80;60.20
47174;DHT22;36730;49.036;9.094;2023-10-31T06:18:52;23.80;60.10
47174;DHT22;36730;49.036;9.094;2023-10-31T06:21:18;23.80;60.00
47174;DHT22;36730;49.036;9.094;2023-10-31T06:23:43;23.90;60.40
47174;DHT22;36730;49.036;9.094;2023-10-31T06:26:11;23.90;60.30
47174;DHT22;36730;49.036;9.094;2023-10-31T06:28:36;23.90;61.10
47174;DHT22;36730;49.036;9.094;2023-10-31T06:31:02;23.90;60.20
47174;DHT22;36730;49.036;9.094;2023-10-31T06:33:28;23.90;60.30
47174;DHT22;36730;49.036;9.094;2023-10-31T06:35:53;23.90;60.00
47174;DHT22;36730;49.036;9.094;2023-10-31T06:38:19;23.90;60.20
47174;DHT22;36730;49.036;9.094;2023-10-31T06:40:44;23.90;60.60
47174;DHT22;36730;49.036;9.094;2023-10-31T06:43:10;23.90;60.40
47174;DHT22;36730;49.036;9.094;2023-10-31T06:45:36;23.90;60.30
47174;DHT22;36730;49.036;9.094;2023-10-31T06:48:01;24.00;60.30
47174;DHT22;36730;49.036;9.094;2023-10-31T06:50:27;24.00;60.40
47174;DHT22;36730;49.036;9.094;2023-10-31T06:52:52;24.00;60.30
47174;DHT22;36730;49.036;9.094;2023-10-31T06:55:18;24.00;60.20
47174;DHT22;36730;49.036;9.094;2023-10-31T06:57:43;23.90;60.20
47174;DHT22;36730;49.036;9.094;2023-10-31T07:00:10;24.00;60.40
47174;DHT22;36730;49.036;9.094;2023-10-31T07:02:36;24.00;61.50
47174;DHT22;36730;49.036;9.094;2023-10-31T07:05:01;23.90;60.90
47174;DHT22;36730;49.036;9.094;2023-10-31T07:07:28;24.00;60.60
47174;DHT22;36730;49.036;9.094;2023-10-31T07:09:54;24.00;60.50
47174;DHT22;36730;49.036;9.094;2023-10-31T07:12:19;24.00;60.50
47174;DHT22;36730;49.036;9.094;2023-10-31T07:14:45;24.00;60.00
47174;DHT22;36730;49.036;9.094;2023-10-31T07:17:10;24.00;59.80
47174;DHT22;36730;49.036;9.094;2023-10-31T07:19:35;24.00;59.70
47174;DHT22;36730;49.036;9.094;2023-10-31T07:22:01;24.00;59.70
47174;DHT22;36730;49.036;9.094;2023-10-31T07:24:27;24.00;60.90
47174;DHT22;36730;49.036;9.094;2023-10-31T07:26:53;23.90;60.00
47174;DHT22;36730;49.036;9.094;2023-10-31T07:29:19;24.00;60.20
47174;DHT22;36730;49.036;9.094;2023-10-31T07:31:44;24.00;60.10
47174;DHT22;36730;49.036;9.094;2023-10-31T07:34:09;24.00;60.50
47174;DHT22;36730;49.036;9.094;2023-10-31T07:36:36;24.00;60.20
47174;DHT22;36730;49.036;9.094;2023-10-31T07:39:02;24.00;60.20
47174;DHT22;36730;49.036;9.094;2023-10-31T07:41:29;24.00;59.80
47174;DHT22;36730;49.036;9.094;2023-10-31T07:43:54;24.00;60.10
47174;DHT22;36730;49.036;9.094;2023-10-31T07:46:20;24.00;59.90
47174;DHT22;36730;49.036;9.094;2023-10-31T07:48:45;24.00;59.80
47174;DHT22;36730;49.036;9.094;2023-10-31T07:51:11;24.00;60.00
47174;DHT22;36730;49.036;9.094;2023-10-31T07:53:36;24.00;60.00
47174;DHT22;36730;49.036;9.094;2023-10-31T07:56:02;24.00;60.00
47174;DHT22;36730;49.036;9.094;2023-10-31T07:58:27;24.00;59.80
47174;DHT22;36730;49.036;9.094;2023-10-31T08:00:53;24.00;59.80
47174;DHT22;36730;49.036;9.094;2023-10-31T08:03:18;24.00;60.60
47174;DHT22;36730;49.036;9.094;2023-10-31T08:05:44;24.00;60.20
47174;DHT22;36730;49.036;9.094;2023-10-31T08:08:09;24.00;60.60
47174;DHT22;36730;49.036;9.094;2023-10-31T08:10:34;24.00;60.40
47174;DHT22;36730;49.036;9.094;2023-10-31T08:13:00;24.00;60.10
47174;DHT22;36730;49.036;9.094;2023-10-31T08:15:26;24.00;60.40
47174;DHT22;36730;49.036;9.094;2023-10-31T08:17:51;24.00;60.40
47174;DHT22;36730;49.036;9.094;2023-10-31T08:20:16;24.10;60.10
47174;DHT22;36730;49.036;9.094;2023-10-31T08:22:42;24.10;61.60
47174;DHT22;36730;49.036;9.094;2023-10-31T08:25:08;24.10;61.30
47174;DHT22;36730;49.036;9.094;2023-10-31T08:27:34;24.10;60.70
47174;DHT22;36730;49.036;9.094;2023-10-31T08:29:59;24.10;61.00
47174;DHT22;36730;49.036;9.094;2023-10-31T08:32:24;24.10;60.50
47174;DHT22;36730;49.036;9.094;2023-10-31T08:34:50;24.20;60.90
47174;DHT22;36730;49.036;9.094;2023-10-31T08:37:15;24.10;61.00
47174;DHT22;36730;49.036;9.094;2023-10-31T08:39:41;24.10;60.80
47174;DHT22;36730;49.036;9.094;2023-10-31T08:42:06;24.10;60.80
47174;DHT22;36730;49.036;9.094;2023-10-31T08:44:32;24.10;60.60
47174;DHT22;36730;49.036;9.094;2023-10-31T08:46:59;24.10;60.70
47174;DHT22;36730;49.036;9.094;2023-10-31T08:49:25;24.10;60.70
47174;DHT22;36730;49.036;9.094;2023-10-31T08:51:50;24.10;60.70
47174;DHT22;36730;49.036;9.094;2023-10-31T08:54:16;24.10;60.40
47174;DHT22;36730;49.036;9.094;2023-10-31T08:56:41;24.10;60.80
47174;DHT22;36730;49.036;9.094;2023-10-31T08:59:06;24.10;61.40
47174;DHT22;36730;49.036;9.094;2023-10-31T09:01:32;24.20;60.60
47174;DHT22;36730;49.036;9.094;2023-10-31T09:03:59;24.20;61.00
47174;DHT22;36730;49.036;9.094;2023-10-31T09:06:25;24.20;60.80
47174;DHT22;36730;49.036;9.094;2023-10-31T09:08:50;24.20;60.50
47174;DHT22;36730;49.036;9.094;2023-10-31T09:11:16;24.20;60.20
47174;DHT22;36730;49.036;9.094;2023-10-31T09:13:41;24.20;59.20
47174;DHT22;36730;49.036;9.094;2023-10-31T09:16:07;24.20;59.10
47174;DHT22;36730;49.036;9.094;2023-10-31T09:18:32;24.20;59.30
47174;DHT22;36730;49.036;9.094;2023-10-31T09:20:58;24.20;58.30
47174;DHT22;36730;49.036;9.094;2023-10-31T09:23:23;24.30;59.10
47174;DHT22;36730;49.036;9.094;2023-10-31T09:25:49;24.20;58.90
47174;DHT22;36730;49.036;9.094;2023-10-31T09:28:14;24.20;59.40
47174;DHT22;36730;49.036;9.094;2023-10-31T09:30:40;24.20;59.20
47174;DHT22;36730;49.036;9.094;2023-10-31T09:33:05;24.30;59.40
47174;DHT22;36730;49.036;9.094;2023-10-31T09:35:31;24.30;59.70
47174;DHT22;36730;49.036;9.094;2023-10-31T09:37:56;24.30;59.00
47174;DHT22;36730;49.036;9.094;2023-10-31T09:40:23;24.30;58.80
47174;DHT22;36730;49.036;9.094;2023-10-31T09:42:48;24.30;58.60
47174;DHT22;36730;49.036;9.094;2023-10-31T09:45:17;24.30;60.30
47174;DHT22;36730;49.036;9.094;2023-10-31T09:47:42;24.30;59.30
47174;DHT22;36730;49.036;9.094;2023-10-31T09:50:08;24.20;58.60
47174;DHT22;36730;49.036;9.094;2023-10-31T09:52:35;24.30;58.20
47174;DHT22;36730;49.036;9.094;2023-10-31T09:55:00;24.40;58.40
47174;DHT22;36730;49.036;9.094;2023-10-31T09:57:26;24.30;58.00
47174;DHT22;36730;49.036;9.094;2023-10-31T09:59:52;24.40;58.40
47174;DHT22;36730;49.036;9.094;2023-10-31T10:02:17;24.40;58.30
47174;DHT22;36730;49.036;9.094;2023-10-31T10:04:43;24.40;58.50
47174;DHT22;36730;49.036;9.094;2023-10-31T10:07:08;24.40;58.60
47174;DHT22;36730;49.036;9.094;2023-10-31T10:09:38;24.40;58.40
47174;DHT22;36730;49.036;9.094;2023-10-31T10:12:04;24.40;58.50
47174;DHT22;36730;49.036;9.094;2023-10-31T10:14:29;24.50;58.60
47174;DHT22;36730;49.036;9.094;2023-10-31T10:16:58;24.50;58.60
47174;DHT22;36730;49.036;9.094;2023-10-31T10:19:24;24.50;58.20
47174;DHT22;36730;49.036;9.094;2023-10-31T10:21:53;24.50;59.50
47174;DHT22;36730;49.036;9.094;2023-10-31T10:24:19;24.50;58.70
47174;DHT22;36730;49.036;9.094;2023-10-31T10:26:45;24.50;59.80
47174;DHT22;36730;49.036;9.094;2023-10-31T10:29:10;24.60;59.30
47174;DHT22;36730;49.036;9.094;2023-10-31T10:31:36;24.60;58.90
47174;DHT22;36730;49.036;9.094;2023-10-31T10:34:01;24.70;58.90
47174;DHT22;36730;49.036;9.094;2023-10-31T10:36:27;24.60;60.70
47174;DHT22;36730;49.036;9.094;2023-10-31T10:38:55;24.70;60.10
47174;DHT22;36730;49.036;9.094;2023-10-31T10:41:21;24.70;59.60
47174;DHT22;36730;49.036;9.094;2023-10-31T10:43:48;24.70;59.30
47174;DHT22;36730;49.036;9.094;2023-10-31T10:46:15;24.80;59.60
47174;DHT22;36730;49.036;9.094;2023-10-31T10:48:42;24.80;59.70
47174;DHT22;36730;49.036;9.094;2023-10-31T10:51:11;24.80;59.80
47174;DHT22;36730;49.036;9.094;2023-10-31T10:53:49;24.80;59.90
47174;DHT22;36730;49.036;9.094;2023-10-31T10:56:19;24.80;59.60
47174;DHT22;36730;49.036;9.094;2023-10-31T11:01:24;24.90;59.60
47174;DHT22;36730;49.036;9.094;2023-10-31T11:03:51;24.90;59.40
47174;DHT22;36730;49.036;9.094;2023-10-31T11:06:17;24.90;59.40
47174;DHT22;36730;49.036;9.094;2023-10-31T11:08:44;24.90;59.40
47174;DHT22;36730;49.036;9.094;2023-10-31T11:11:10;25.00;59.40
47174;DHT22;36730;49.036;9.094;2023-10-31T11:13:35;25.00;60.10
47174;DHT22;36730;49.036;9.094;2023-10-31T11:16:07;25.00;60.10
47174;DHT22;36730;49.036;9.094;2023-10-31T11:18:34;25.00;60.20
47174;DHT22;36730;49.036;9.094;2023-10-31T11:21:00;25.10;60.50
47174;DHT22;36730;49.036;9.094;2023-10-31T11:23:27;25.10;59.90
47174;DHT22;36730;49.036;9.094;2023-10-31T11:25:52;25.10;59.70
47174;DHT22;36730;49.036;9.094;2023-10-31T11:28:18;25.10;60.00
47174;DHT22;36730;49.036;9.094;2023-10-31T11:30:45;25.20;60.10
47174;DHT22;36730;49.036;9.094;2023-10-31T11:33:11;25.20;59.80
47174;DHT22;36730;49.036;9.094;2023-10-31T11:35:38;25.20;59.10
47174;DHT22;36730;49.036;9.094;2023-10-31T11:38:08;25.20;59.40
47174;DHT22;36730;49.036;9.094;2023-10-31T11:40:57;25.10;59.10
47174;DHT22;36730;49.036;9.094;2023-10-31T11:43:23;25.10;59.10
47174;DHT22;36730;49.036;9.094;2023-10-31T11:45:48;25.10;59.30
47174;DHT22;36730;49.036;9.094;2023-10-31T11:48:14;25.10;59.30
47174;DHT22;36730;49.036;9.094;2023-10-31T11:50:40;25.10;59.10
47174;DHT22;36730;49.036;9.094;2023-10-31T11:55:35;25.10;58.70
47174;DHT22;36730;49.036;9.094;2023-10-31T11:58:20;25.10;59.10
47174;DHT22;36730;49.036;9.094;2023-10-31T12:00:46;25.10;59.80
47174;DHT22;36730;49.036;9.094;2023-10-31T12:03:14;25.20;59.90
47174;DHT22;36730;49.036;9.094;2023-10-31T12:05:40;25.20;59.70
47174;DHT22;36730;49.036;9.094;2023-10-31T12:08:15;25.30;59.80
47174;DHT22;36730;49.036;9.094;2023-10-31T12:10:40;25.20;60.00
47174;DHT22;36730;49.036;9.094;2023-10-31T12:13:06;25.30;60.00
47174;DHT22;36730;49.036;9.094;2023-10-31T12:15:37;25.30;60.00
47174;DHT22;36730;49.036;9.094;2023-10-31T12:18:03;25.30;60.10
47174;DHT22;36730;49.036;9.094;2023-10-31T12:20:28;25.30;60.00
47174;DHT22;36730;49.036;9.094;2023-10-31T12:23:03;25.40;59.80
47174;DHT22;36730;49.036;9.094;2023-10-31T12:25:29;25.40;59.90
47174;DHT22;36730;49.036;9.094;2023-10-31T12:27:54;25.40;59.80
47174;DHT22;36730;49.036;9.094;2023-10-31T12:30:20;25.40;59.90
47174;DHT22;36730;49.036;9.094;2023-10-31T12:32:53;25.40;59.90
47174;DHT22;36730;49.036;9.094;2023-10-31T12:35:20;25.50;60.10
47174;DHT22;36730;49.036;9.094;2023-10-31T12:37:47;25.50;60.10
47174;DHT22;36730;49.036;9.094;2023-10-31T12:40:13;25.50;60.10
47174;DHT22;36730;49.036;9.094;2023-10-31T12:42:40;25.40;59.90
47174;DHT22;36730;49.036;9.094;2023-10-31T12:45:05;25.50;60.00
47174;DHT22;36730;49.036;9.094;2023-10-31T12:47:31;25.50;60.00
47174;DHT22;36730;49.036;9.094;2023-10-31T12:50:07;25.50;60.00
47174;DHT22;36730;49.036;9.094;2023-10-31T12:52:51;25.50;59.90
47174;DHT22;36730;49.036;9.094;2023-10-31T12:55:26;25.50;59.90
47174;DHT22;36730;49.036;9.094;2023-10-31T12:57:52;25.50;60.00
47174;DHT22;36730;49.036;9.094;2023-10-31T13:00:19;25.50;60.10
47174;DHT22;36730;49.036;9.094;2023-10-31T13:02:58;25.60;59.90
47174;DHT22;36730;49.036;9.094;2023-10-31T13:05:25;25.50;60.20
47174;DHT22;36730;49.036;9.094;2023-10-31T13:07:51;25.50;60.30
47174;DHT22;36730;49.036;9.094;2023-10-31T13:10:20;25.50;61.20
47174;DHT22;36730;49.036;9.094;2023-10-31T13:12:46;25.50;60.30
47174;DHT22;36730;49.036;9.094;2023-10-31T13:15:19;25.40;60.20
47174;DHT22;36730;49.036;9.094;2023-10-31T13:17:45;25.40;60.50
47174;DHT22;36730;49.036;9.094;2023-10-31T13:20:11;25.50;60.60
47174;DHT22;36730;49.036;9.094;2023-10-31T13:22:38;25.50;60.50
47174;DHT22;36730;49.036;9.094;2023-10-31T13:25:04;25.50;60.20
47174;DHT22;36730;49.036;9.094;2023-10-31T13:27:33;25.50;60.20
47174;DHT22;36730;49.036;9.094;2023-10-31T13:30:03;25.50;60.20
47174;DHT22;36730;49.036;9.094;2023-10-31T13:32:29;25.60;60.80
47174;DHT22;36730;49.036;9.094;2023-10-31T13:34:54;25.60;60.80
47174;DHT22;36730;49.036;9.094;2023-10-31T13:37:20;25.60;60.60
47174;DHT22;36730;49.036;9.094;2023-10-31T13:39:46;25.60;60.90
47174;DHT22;36730;49.036;9.094;2023-10-31T13:42:11;25.60;60.70
47174;DHT22;36730;49.036;9.094;2023-10-31T13:44:37;25.60;60.60
47174;DHT22;36730;49.036;9.094;2023-10-31T13:47:03;25.50;60.70
47174;DHT22;36730;49.036;9.094;2023-10-31T13:49:28;25.50;61.00
47174;DHT22;36730;49.036;9.094;2023-10-31T13:51:54;25.50;61.10
47174;DHT22;36730;49.036;9.094;2023-10-31T13:54:19;25.50;61.00
47174;DHT22;36730;49.036;9.094;2023-10-31T13:56:46;25.50;60.80
47174;DHT22;36730;49.036;9.094;2023-10-31T13:59:11;25.50;60.10
47174;DHT22;36730;49.036;9.094;2023-10-31T14:01:37;25.50;61.20
47174;DHT22;36730;49.036;9.094;2023-10-31T14:04:02;25.50;60.70
47174;DHT22;36730;49.036;9.094;2023-10-31T14:06:28;25.50;60.70
47174;DHT22;36730;49.036;9.094;2023-10-31T14:08:56;25.40;60.60
47174;DHT22;36730;49.036;9.094;2023-10-31T14:11:21;25.50;60.60
47174;DHT22;36730;49.036;9.094;2023-10-31T14:13:46;25.40;60.40
47174;DHT22;36730;49.036;9.094;2023-10-31T14:16:12;25.40;60.40
47174;DHT22;36730;49.036;9.094;2023-10-31T14:18:37;25.40;60.20
47174;DHT22;36730;49.036;9.094;2023-10-31T14:21:04;25.40;60.40
47174;DHT22;36730;49.036;9.094;2023-10-31T14:23:30;25.40;60.40
47174;DHT22;36730;49.036;9.094;2023-10-31T14:25:56;25.40;60.30
47174;DHT22;36730;49.036;9.094;2023-10-31T14:28:21;25.40;60.60
47174;DHT22;36730;49.036;9.094;2023-10-31T14:30:47;25.40;60.60
47174;DHT22;36730;49.036;9.094;2023-10-31T14:33:12;25.40;60.80
47174;DHT22;36730;49.036;9.094;2023-10-31T14:35:39;25.40;60.90
47174;DHT22;36730;49.036;9.094;2023-10-31T14:38:04;25.40;60.80
47174;DHT22;36730;49.036;9.094;2023-10-31T14:40:30;25.40;61.40
47174;DHT22;36730;49.036;9.094;2023-10-31T14:42:55;25.50;61.70
47174;DHT22;36730;49.036;9.094;2023-10-31T14:45:21;25.50;61.60
47174;DHT22;36730;49.036;9.094;2023-10-31T14:47:46;25.50;61.50
47174;DHT22;36730;49.036;9.094;2023-10-31T14:50:12;25.50;61.20
47174;DHT22;36730;49.036;9.094;2023-10-31T14:52:37;25.50;61.40
47174;DHT22;36730;49.036;9.094;2023-10-31T14:55:03;25.40;61.40
47174;DHT22;36730;49.036;9.094;2023-10-31T14:57:28;25.40;61.50
47174;DHT22;36730;49.036;9.094;2023-10-31T14:59:54;25.40;61.20
47174;DHT22;36730;49.036;9.094;2023-10-31T15:02:22;25.40;61.20
47174;DHT22;36730;49.036;9.094;2023-10-31T15:04:48;25.40;61.50
47174;DHT22;36730;49.036;9.094;2023-10-31T15:07:13;25.30;61.50
47174;DHT22;36730;49.036;9.094;2023-10-31T15:09:38;25.40;61.20
47174;DHT22;36730;49.036;9.094;2023-10-31T15:12:04;25.30;61.40
47174;DHT22;36730;49.036;9.094;2023-10-31T15:14:30;25.30;61.40
47174;DHT22;36730;49.036;9.094;2023-10-31T15:16:55;25.30;61.40
47174;DHT22;36730;49.036;9.094;2023-10-31T15:19:21;25.30;61.30
47174;DHT22;36730;49.036;9.094;2023-10-31T15:21:46;25.30;61.50
47174;DHT22;36730;49.036;9.094;2023-10-31T15:24:12;25.30;61.80
47174;DHT22;36730;49.036;9.094;2023-10-31T15:26:38;25.30;62.00